UUWWUUYY

Guest
Details From UUWW - Vnukovo
To UUYY - Syktyvkar
Flight Number -
Tags Generated
Created
Modified
Stats Distance 558 nm / 1,033 km
Max Altitude 0 ft / 0 m
Waypoints 3
Social Downloads 2
Likes 0
Share VATSIM

Download

Looking for another format? Having issues loading an existing format? Contact us
Advertisement - Login to hide

Notes

Generated

Route

UUWW PW UUYY

ID Type Via Altitude Latitude Longitude Leg Dist Tot Dist Heading (true) Name
O UUWW APT - 0 ft / 0 m 55.58804˚ 37.24603˚ - 0 nm - -
PW NDB - 0 ft / 0 m 61.60500˚ 50.80833˚ 555 nm 555 nm 44° / 56° SYKTYVKAR NDB
O UUYY APT - 0 ft / 0 m 61.63657˚ 50.83632˚ 2 nm 557 nm 23° / 23° -

Altitude Profile

Advertisement - Login to hide

Weather


0- 5 10 15 20 25 30 35+ Temperature / ° C

Clouds and Precipitation
Forecast for 2018-05-25 06:00 UTC. Updated 4 hours ago

Ground ~20,000 ft ~40,000 ft Winds

UUWW

Details ICAO UUWW (VKO)
Name VNUKOVO
Region Russia
Timezone Europe/Moscow (UTC+3.0)
Stats Elevation 685 ft / 209 m (AMSL)
Location 55.596061° 37.267664°
Runways 2
Magnetic Variation 11.015° E

METAR

UUWW 250900Z 04007MPS 360V070 CAVOK 16/02 Q1026 R06/000070 NOSIG

Decode

TAF

TAF UUWW 250750Z 2509/2609 04008G15MPS 9999 SCT030 TX19/2512Z TN07/2602Z BECMG 2516/2518 04003MPS

Decode

Departure Runways

ID Width Length Bearing (true) Bearing (mag) Surface Threshold Offset Overrun Length
02 197 ft / 60 m 9,993 ft / 3,046 m 23.36° 12.35° Asphalt 0 ft / 0 m 140 ft / 43 m
06 197 ft / 60 m 9,785 ft / 2,982 m 68.26° 57.25° Asphalt 0 ft / 0 m 250 ft / 76 m
20 197 ft / 60 m 9,993 ft / 3,046 m 203.37° 192.36° Asphalt 0 ft / 0 m 150 ft / 46 m
24 197 ft / 60 m 9,785 ft / 2,982 m 248.29° 237.28° Asphalt 0 ft / 0 m 260 ft / 79 m

UUYY

Details ICAO UUYY (SCW)
Name SYKTYVKAR
Region Russia
Timezone Europe/Moscow (UTC+3.0)
Stats Elevation 342 ft / 104 m (AMSL)
Location 61.647049° 50.845050°
Runways 1
Magnetic Variation 17.759° E

METAR

UUYY 250900Z 02007MPS 9999 SCT030CB OVC043 05/M01 Q1025 R36/CLRD61 NOSIG RMK QFE759/1012

Decode

TAF

TAF TAF UUYY 250800Z 2509/2609 35005G12MPS 9999 BKN020 TEMPO 2509/2512 33013MPS BECMG 2512/2514 36003G08MPS BECMG 2520/2521 27003G08MPS

Decode

Destination Runways

ID Width Length Bearing (true) Bearing (mag) Surface Threshold Offset Overrun Length
01 164 ft / 50 m 8,227 ft / 2,508 m 21.57° 3.81° Asphalt 0 ft / 0 m 150 ft / 46 m
19 164 ft / 50 m 8,227 ft / 2,508 m 201.59° 183.83° Asphalt 0 ft / 0 m 160 ft / 49 m

Approach Navaids

Runway Type Ident Frequency Range Bearing (true) Bearing (mag) Slope Elevation
01 Localiser IPW 108.30 MHz 18 nm / 33 km 17.05° 359.30° - 342 ft / 104 m (AMSL)
01 Glidescope IPW 108.30 MHz 10 nm / 19 km 21.58° 3.82° 3.00° 342 ft / 104 m (AMSL)
19 Localiser ISR 111.70 MHz 18 nm / 33 km 201.43° 183.67° - 342 ft / 104 m (AMSL)
19 Glidescope ISR 111.70 MHz 10 nm / 19 km 201.58° 183.82° 3.00° 342 ft / 104 m (AMSL)

Popular Alternatives